Andover, New Jersey
Current Conditions -  °F | °C
As of 4:01 AM on Monday 24 Nov 2014 (Local Time) from KFWN Reporting Station
Moderate Rain Moderate Rain  
Wind Chill: 54°   Ceiling: 1400
Heat Index: 54°   Visibility: 4mi
Dew Point: 51°   Wind: 5mph
Humidity: 90%   Direction: NA
Pressure: 29.71"   Gusts: NA
Location:  40.99°N, 74.74°W
Report Text: KFWN 240901Z AUTO VRB04KT 4SM RA BR BKN014 BKN022 OVC034 12/11 A2971 RMK AO2 PRESFR P0003 T01220106
Loading
Personal Weather Stations






























Interactive Weather Map New forecast layout! Learn more

10-Day Weather Forecast

Advertisements
Track Severe Weather on mobile